sensor_id;sensor_type;location;lat;lon;timestamp;pressure;altitude;pressure_sealevel;temperature;humidity
46174;BME280;31897;52.420;13.498;2023-09-12T00:00:20;100800;;;17.54252;34.35703
46174;BME280;31897;52.420;13.498;2023-09-12T00:03:22;100800;;;17.53735;34.3631
46174;BME280;31897;52.420;13.498;2023-09-12T00:06:23;100800;;;17.52992;34.3991
46174;BME280;31897;52.420;13.498;2023-09-12T00:09:24;100800;;;17.50472;34.42346
46174;BME280;31897;52.420;13.498;2023-09-12T00:12:24;100800;;;17.48566;34.45368
46174;BME280;31897;52.420;13.498;2023-09-12T00:15:25;100800;;;17.45529;34.49606
46174;BME280;31897;52.420;13.498;2023-09-12T00:18:26;100800;;;17.45497;34.4602
46174;BME280;31897;52.420;13.498;2023-09-12T00:21:27;100800;;;17.41038;34.46097
46174;BME280;31897;52.420;13.498;2023-09-12T00:24:28;100800;;;17.38777;34.52113
46174;BME280;31897;52.420;13.498;2023-09-12T00:27:29;100800;;;17.39843;34.52693
46174;BME280;31897;52.420;13.498;2023-09-12T00:30:30;100800;;;17.391;34.52108
46174;BME280;31897;52.420;13.498;2023-09-12T00:33:31;100800;;;17.3335;34.62963
46174;BME280;31897;52.420;13.498;2023-09-12T00:36:32;100800;;;17.35417;34.63526
46174;BME280;31897;52.420;13.498;2023-09-12T00:39:33;100800;;;17.35029;34.59947
46174;BME280;31897;52.420;13.498;2023-09-12T00:42:34;100800;;;17.35611;34.59339
46174;BME280;31897;52.420;13.498;2023-09-12T00:45:34;100800;;;17.32671;34.62975
46174;BME280;31897;52.420;13.498;2023-09-12T00:48:35;100800;;;17.30377;34.70782
46174;BME280;31897;52.420;13.498;2023-09-12T00:51:38;100800;;;17.29602;34.70198
46174;BME280;31897;52.420;13.498;2023-09-12T00:54:39;100800;;;17.2159;34.76904
46174;BME280;31897;52.420;13.498;2023-09-12T00:57:40;100800;;;17.14547;34.87772
46174;BME280;31897;52.420;13.498;2023-09-12T01:00:41;100800;;;17.10961;34.96192
46174;BME280;31897;52.420;13.498;2023-09-12T01:03:42;100800;;;17.08764;34.9563
46174;BME280;31897;52.420;13.498;2023-09-12T01:06:43;100800;;;17.04952;35.02261
46174;BME280;31897;52.420;13.498;2023-09-12T01:09:44;100800;;;17.07181;34.98642
46174;BME280;31897;52.420;13.498;2023-09-12T01:12:45;100800;;;17.03789;34.98099
46174;BME280;31897;52.420;13.498;2023-09-12T01:15:46;100800;;;17.02109;35.00515
46174;BME280;31897;52.420;13.498;2023-09-12T01:18:47;100800;;;17.02885;34.92143
46174;BME280;31897;52.420;13.498;2023-09-12T01:22:08;100800;;;17.02755;34.86174
46174;BME280;31897;52.420;13.498;2023-09-12T01:25:23;100800;;;16.89833;34.97727
46174;BME280;31897;52.420;13.498;2023-09-12T01:28:30;100800;;;16.79495;35.06248
46174;BME280;31897;52.420;13.498;2023-09-12T01:31:34;100800;;;16.67283;35.2434
46174;BME280;31897;52.420;13.498;2023-09-12T01:34:37;100800;;;16.60692;35.32792
46174;BME280;31897;52.420;13.498;2023-09-12T01:37:38;100800;;;16.5688;35.38218
46174;BME280;31897;52.420;13.498;2023-09-12T01:40:42;100800;;;16.54037;35.43628
46174;BME280;31897;52.420;13.498;2023-09-12T01:43:44;100800;;;16.47318;35.53865
46174;BME280;31897;52.420;13.498;2023-09-12T01:46:45;100800;;;16.44507;35.59869
46174;BME280;31897;52.420;13.498;2023-09-12T01:49:47;100800;;;16.41115;35.67668
46174;BME280;31897;52.420;13.498;2023-09-12T01:52:48;100800;;;16.40275;35.70065
46174;BME280;31897;52.420;13.498;2023-09-12T01:55:49;100800;;;16.38854;35.74258
46174;BME280;31897;52.420;13.498;2023-09-12T01:58:50;100800;;;16.35074;35.80272
46174;BME280;31897;52.420;13.498;2023-09-12T02:01:51;100800;;;16.3278;35.86265
46174;BME280;31897;52.420;13.498;2023-09-12T02:04:52;100800;;;16.32618;35.86267
46174;BME280;31897;52.420;13.498;2023-09-12T02:07:56;100800;;;16.31843;35.85682
46174;BME280;31897;52.420;13.498;2023-09-12T02:10:56;100800;;;16.26448;35.89928
46174;BME280;31897;52.420;13.498;2023-09-12T02:13:57;100800;;;16.24122;35.92344
46174;BME280;31897;52.420;13.498;2023-09-12T02:16:59;100800;;;16.16982;35.984
46174;BME280;31897;52.420;13.498;2023-09-12T02:20:00;100800;;;16.10844;36.09206
46174;BME280;31897;52.420;13.498;2023-09-12T02:23:01;100800;;;16.05223;36.14045
46174;BME280;31897;52.420;13.498;2023-09-12T02:26:02;100800;;;15.96823;36.27257
46174;BME280;31897;52.420;13.498;2023-09-12T02:29:03;100800;;;15.92204;36.32079
46174;BME280;31897;52.420;13.498;2023-09-12T02:32:04;100800;;;15.89748;36.39255
46174;BME280;31897;52.420;13.498;2023-09-12T02:35:05;100800;;;15.89199;36.39857
46174;BME280;31897;52.420;13.498;2023-09-12T02:38:06;100800;;;15.88198;36.3987
46174;BME280;31897;52.420;13.498;2023-09-12T02:41:07;100800;;;15.86938;36.45243
46174;BME280;31897;52.420;13.498;2023-09-12T02:44:08;100800;;;15.86582;36.45843
46174;BME280;31897;52.420;13.498;2023-09-12T02:47:08;100800;;;15.87939;36.48803
46174;BME280;31897;52.420;13.498;2023-09-12T02:50:09;100800;;;15.87842;36.51781
46174;BME280;31897;52.420;13.498;2023-09-12T02:53:10;100800;;;15.87487;36.5238
46174;BME280;31897;52.420;13.498;2023-09-12T02:56:11;100800;;;15.83804;36.55997
46174;BME280;31897;52.420;13.498;2023-09-12T02:59:12;100800;;;15.82027;36.54233
46174;BME280;31897;52.420;13.498;2023-09-12T03:02:12;100800;;;15.8025;36.58421
46174;BME280;31897;52.420;13.498;2023-09-12T03:05:13;100800;;;15.77763;36.63808
46174;BME280;31897;52.420;13.498;2023-09-12T03:08:14;100800;;;15.74661;36.70391
46174;BME280;31897;52.420;13.498;2023-09-12T03:11:15;100800;;;15.73078;36.71005
46174;BME280;31897;52.420;13.498;2023-09-12T03:14:15;100800;;;15.73078;36.66839
46174;BME280;31897;52.420;13.498;2023-09-12T03:17:16;100800;;;15.73821;36.66235
46174;BME280;31897;52.420;13.498;2023-09-12T03:20:17;100800;;;15.70042;36.7104
46174;BME280;31897;52.420;13.498;2023-09-12T03:23:19;100800;;;15.67877;36.75826
46174;BME280;31897;52.420;13.498;2023-09-12T03:26:19;100800;;;15.62837;36.82429
46174;BME280;31897;52.420;13.498;2023-09-12T03:29:20;100800;;;15.55601;36.95003
46174;BME280;31897;52.420;13.498;2023-09-12T03:32:21;100800;;;15.56828;36.95584
46174;BME280;31897;52.420;13.498;2023-09-12T03:35:22;100800;;;15.61222;36.90181
46174;BME280;31897;52.420;13.498;2023-09-12T03:38:23;100800;;;15.67942;36.82965
46174;BME280;31897;52.420;13.498;2023-09-12T03:41:23;100800;;;15.70009;36.81156
46174;BME280;31897;52.420;13.498;2023-09-12T03:44:24;100800;;;15.71205;36.77572
46174;BME280;31897;52.420;13.498;2023-09-12T03:47:25;100800;;;15.71754;36.75781
46174;BME280;31897;52.420;13.498;2023-09-12T03:50:26;100800;;;15.6694;36.77027
46174;BME280;31897;52.420;13.498;2023-09-12T03:53:27;100800;;;15.57313;37.04501
46174;BME280;31897;52.420;13.498;2023-09-12T03:56:28;100800;;;15.4872;37.30167
46174;BME280;31897;52.420;13.498;2023-09-12T03:59:29;100800;;;15.50238;37.42639
46174;BME280;31897;52.420;13.498;2023-09-12T04:02:30;100800;;;15.49689;37.48592
46174;BME280;31897;52.420;13.498;2023-09-12T04:05:31;100800;;;15.52273;37.44403
46174;BME280;31897;52.420;13.498;2023-09-12T04:08:32;100800;;;15.55827;37.33067
46174;BME280;31897;52.420;13.498;2023-09-12T04:11:32;100800;;;15.54082;37.27732
46174;BME280;31897;52.420;13.498;2023-09-12T04:14:35;100800;;;15.5082;37.28361
46174;BME280;31897;52.420;13.498;2023-09-12T04:17:35;100800;;;15.5153;37.23596
46174;BME280;31897;52.420;13.498;2023-09-12T04:20:36;100800;;;15.46232;37.23057
46174;BME280;31897;52.420;13.498;2023-09-12T04:23:37;100800;;;15.41516;37.3262
46174;BME280;31897;52.420;13.498;2023-09-12T04:26:38;100800;;;15.43422;37.33789
46174;BME280;31897;52.420;13.498;2023-09-12T04:29:38;100800;;;15.44423;37.36752
46174;BME280;31897;52.420;13.498;2023-09-12T04:32:39;100800;;;15.50464;37.22418
46174;BME280;31897;52.420;13.498;2023-09-12T04:35:40;100800;;;15.48784;37.20652
46174;BME280;31897;52.420;13.498;2023-09-12T04:38:41;100800;;;15.39803;37.24314
46174;BME280;31897;52.420;13.498;2023-09-12T04:41:41;100800;;;15.31824;37.35097
46174;BME280;31897;52.420;13.498;2023-09-12T04:44:42;100800;;;15.24717;37.42896
46174;BME280;31897;52.420;13.498;2023-09-12T04:47:43;100800;;;15.19128;37.54242
46174;BME280;31897;52.420;13.498;2023-09-12T04:50:44;100800;;;15.19741;37.61367
46174;BME280;31897;52.420;13.498;2023-09-12T04:53:44;100800;;;15.24523;37.57755
46174;BME280;31897;52.420;13.498;2023-09-12T04:56:45;100800;;;15.2995;37.52353
46174;BME280;31897;52.420;13.498;2023-09-12T04:59:46;100800;;;15.36056;37.46349
46174;BME280;31897;52.420;13.498;2023-09-12T05:02:47;100800;;;15.36314;37.49319
46174;BME280;31897;52.420;13.498;2023-09-12T05:05:48;100800;;;15.40159;37.53442
46174;BME280;31897;52.420;13.498;2023-09-12T05:08:49;100800;;;15.4662;37.53379
46174;BME280;31897;52.420;13.498;2023-09-12T05:11:49;100800;;;15.57862;37.497
46174;BME280;31897;52.420;13.498;2023-09-12T05:14:50;100800;;;15.69428;37.37091
46174;BME280;31897;52.420;13.498;2023-09-12T05:17:51;100800;;;15.76955;37.29873
46174;BME280;31897;52.420;13.498;2023-09-12T05:20:52;100800;;;15.80347;37.26862
46174;BME280;31897;52.420;13.498;2023-09-12T05:23:52;100800;;;15.8529;37.20263
46174;BME280;31897;52.420;13.498;2023-09-12T05:26:53;100800;;;15.86841;37.27388
46174;BME280;31897;52.420;13.498;2023-09-12T05:29:54;100800;;;15.88424;37.26776
46174;BME280;31897;52.420;13.498;2023-09-12T05:32:55;100800;;;15.965;37.21928
46174;BME280;31897;52.420;13.498;2023-09-12T05:35:55;100800;;;16.03543;37.28997
46174;BME280;31897;52.420;13.498;2023-09-12T05:38:56;100800;;;16.17499;37.26467
46174;BME280;31897;52.420;13.498;2023-09-12T05:41:57;100800;;;16.31649;37.12612
46174;BME280;31897;52.420;13.498;2023-09-12T05:44:58;100800;;;16.37206;37.04208
46174;BME280;31897;52.420;13.498;2023-09-12T05:47:58;100800;;;16.41696;37.01774
46174;BME280;31897;52.420;13.498;2023-09-12T05:50:59;100800;;;16.50096;36.99294
46174;BME280;31897;52.420;13.498;2023-09-12T05:54:00;100800;;;16.57042;36.90868
46174;BME280;31897;52.420;13.498;2023-09-12T05:57:01;100800;;;16.64505;36.86607
46174;BME280;31897;52.420;13.498;2023-09-12T06:00:02;100800;;;16.741;36.78144
46174;BME280;31897;52.420;13.498;2023-09-12T06:03:03;100800;;;16.84599;36.6191
46174;BME280;31897;52.420;13.498;2023-09-12T06:06:04;100800;;;16.97877;36.59358
46174;BME280;31897;52.420;13.498;2023-09-12T06:09:05;100800;;;17.087;36.38927
46174;BME280;31897;52.420;13.498;2023-09-12T06:12:06;100800;;;17.18295;36.22084
46174;BME280;31897;52.420;13.498;2023-09-12T06:15:07;100800;;;17.2999;36.06398
46174;BME280;31897;52.420;13.498;2023-09-12T06:18:08;100800;;;17.52313;35.74415
46174;BME280;31897;52.420;13.498;2023-09-12T06:21:09;100800;;;17.68467;35.13791
46174;BME280;31897;52.420;13.498;2023-09-12T06:24:10;100800;;;17.70017;35.05993
46174;BME280;31897;52.420;13.498;2023-09-12T06:27:11;100800;;;17.82972;34.81855
46174;BME280;31897;52.420;13.498;2023-09-12T06:30:12;100800;;;18.01969;34.55203
46174;BME280;31897;52.420;13.498;2023-09-12T06:33:13;100800;;;18.06266;34.35375
46174;BME280;31897;52.420;13.498;2023-09-12T06:36:14;100900;;;18.07913;34.21578
46174;BME280;31897;52.420;13.498;2023-09-12T06:39:15;100900;;;18.02776;34.07305
46174;BME280;31897;52.420;13.498;2023-09-12T06:42:15;100900;;;18.16442;33.84897
46174;BME280;31897;52.420;13.498;2023-09-12T06:45:16;100900;;;18.16313;33.70527
46174;BME280;31897;52.420;13.498;2023-09-12T06:48:17;100900;;;18.37216;33.43759
46174;BME280;31897;52.420;13.498;2023-09-12T06:51:18;100900;;;18.41092;33.31697
46174;BME280;31897;52.420;13.498;2023-09-12T06:54:19;100900;;;18.53627;33.1346
46174;BME280;31897;52.420;13.498;2023-09-12T06:57:19;100900;;;18.81573;32.93683
46174;BME280;31897;52.420;13.498;2023-09-12T07:00:20;100900;;;19.07742;32.69116
46174;BME280;31897;52.420;13.498;2023-09-12T07:03:21;100900;;;19.26189;32.50696
46174;BME280;31897;52.420;13.498;2023-09-12T07:06:22;100900;;;19.37174;32.38436
46174;BME280;31897;52.420;13.498;2023-09-12T07:09:23;100900;;;19.47803;32.18968
46174;BME280;31897;52.420;13.498;2023-09-12T07:12:24;100900;;;19.54329;31.94177
46174;BME280;31897;52.420;13.498;2023-09-12T07:15:24;100900;;;19.46187;31.89564
46174;BME280;31897;52.420;13.498;2023-09-12T07:18:25;100900;;;19.45864;31.85365
46174;BME280;31897;52.420;13.498;2023-09-12T07:21:26;100900;;;19.53876;31.82769
46174;BME280;31897;52.420;13.498;2023-09-12T07:24:27;100900;;;19.87024;31.43477
46174;BME280;31897;52.420;13.498;2023-09-12T07:27:28;100900;;;20.03921;31.21391
46174;BME280;31897;52.420;13.498;2023-09-12T07:30:29;100900;;;20.02725;31.28642
46174;BME280;31897;52.420;13.498;2023-09-12T07:33:30;100900;;;20.38166;30.99435
46174;BME280;31897;52.420;13.498;2023-09-12T07:36:31;100900;;;20.5264;30.80379
46174;BME280;31897;52.420;13.498;2023-09-12T07:39:32;100800;;;20.77905;30.59208
46174;BME280;31897;52.420;13.498;2023-09-12T07:42:33;100800;;;20.8595;30.36076
46174;BME280;31897;52.420;13.498;2023-09-12T07:45:33;100800;;;20.88502;30.25754
46174;BME280;31897;52.420;13.498;2023-09-12T07:48:34;100800;;;21.03266;30.10862
46174;BME280;31897;52.420;13.498;2023-09-12T07:51:35;100800;;;21.33377;30.0578
46174;BME280;31897;52.420;13.498;2023-09-12T07:54:36;100800;;;21.60161;29.80247
46174;BME280;31897;52.420;13.498;2023-09-12T07:57:37;100800;;;21.73116;29.54488
46174;BME280;31897;52.420;13.498;2023-09-12T08:00:37;100800;;;21.86266;29.28707
46174;BME280;31897;52.420;13.498;2023-09-12T08:03:39;100800;;;22.03777;29.05192
46174;BME280;31897;52.420;13.498;2023-09-12T08:06:40;100800;;;22.16797;28.88453
46174;BME280;31897;52.420;13.498;2023-09-12T08:09:49;100800;;;22.18251;28.79332
46174;BME280;31897;52.420;13.498;2023-09-12T08:12:50;100800;;;22.39445;28.45972
46174;BME280;31897;52.420;13.498;2023-09-12T08:15:50;100800;;;22.70041;28.14686
46174;BME280;31897;52.420;13.498;2023-09-12T08:18:51;100800;;;23.07713;27.75229
46174;BME280;31897;52.420;13.498;2023-09-12T08:21:52;100800;;;23.76885;27.02393
46174;BME280;31897;52.420;13.498;2023-09-12T08:24:53;100800;;;23.74042;27.11607
46174;BME280;31897;52.420;13.498;2023-09-12T08:27:54;100800;;;23.7653;26.99977
46174;BME280;31897;52.420;13.498;2023-09-12T08:30:54;100800;;;23.97143;26.60335
46174;BME280;31897;52.420;13.498;2023-09-12T08:33:55;100800;;;23.81893;26.75481
46174;BME280;31897;52.420;13.498;2023-09-12T08:36:56;100800;;;23.89938;26.72755
46174;BME280;31897;52.420;13.498;2023-09-12T08:39:57;100800;;;24.05123;26.69157
46174;BME280;31897;52.420;13.498;2023-09-12T08:42:57;100800;;;24.14493;26.57258
46174;BME280;31897;52.420;13.498;2023-09-12T08:45:58;100800;;;24.11488;26.65274
46174;BME280;31897;52.420;13.498;2023-09-12T08:48:59;100800;;;24.29452;26.52444
46174;BME280;31897;52.420;13.498;2023-09-12T08:52:00;100800;;;24.37303;26.27816
46174;BME280;31897;52.420;13.498;2023-09-12T08:55:06;100800;;;24.54621;26.05248
46174;BME280;31897;52.420;13.498;2023-09-12T08:58:07;100800;;;25.73454;24.77357
46174;BME280;31897;52.420;13.498;2023-09-12T09:01:08;100800;;;26.32936;23.96011
46174;BME280;31897;52.420;13.498;2023-09-12T09:04:10;100800;;;25.79754;24.3008
46174;BME280;31897;52.420;13.498;2023-09-12T09:07:11;100800;;;25.36783;24.82542
46174;BME280;31897;52.420;13.498;2023-09-12T09:10:14;100900;;;25.45442;24.44967
46174;BME280;31897;52.420;13.498;2023-09-12T09:13:15;100900;;;26.15166;23.86389
46174;BME280;31897;52.420;13.498;2023-09-12T09:16:16;100900;;;26.1103;23.59076
46174;BME280;31897;52.420;13.498;2023-09-12T09:19:18;100800;;;26.13033;23.71822
46174;BME280;31897;52.420;13.498;2023-09-12T09:22:19;100800;;;26.20594;23.72711
46174;BME280;31897;52.420;13.498;2023-09-12T09:25:20;100900;;;26.27056;23.91988
46174;BME280;31897;52.420;13.498;2023-09-12T09:28:21;100900;;;26.41627;23.61386
46174;BME280;31897;52.420;13.498;2023-09-12T09:31:22;100900;;;26.60335;23.44035
46174;BME280;31897;52.420;13.498;2023-09-12T09:34:22;100800;;;26.96457;22.97096
46174;BME280;31897;52.420;13.498;2023-09-12T09:37:23;100800;;;27.46182;22.43302
46174;BME280;31897;52.420;13.498;2023-09-12T09:40:24;100800;;;27.31222;22.43397
46174;BME280;31897;52.420;13.498;2023-09-12T09:43:25;100800;;;27.52579;22.16628
46174;BME280;31897;52.420;13.498;2023-09-12T09:46:26;100800;;;28.24405;21.54815
46174;BME280;31897;52.420;13.498;2023-09-12T09:49:27;100800;;;28.83436;21.12514
46174;BME280;31897;52.420;13.498;2023-09-12T09:52:28;100800;;;28.76845;21.14693
46174;BME280;31897;52.420;13.498;2023-09-12T09:55:30;100800;;;28.54744;21.33638
46174;BME280;31897;52.420;13.498;2023-09-12T09:58:31;100800;;;28.40302;21.51569
46174;BME280;31897;52.420;13.498;2023-09-12T10:01:32;100800;;;28.05956;21.76607
46174;BME280;31897;52.420;13.498;2023-09-12T10:04:34;100800;;;28.05277;21.9322
46174;BME280;31897;52.420;13.498;2023-09-12T10:07:36;100800;;;28.09284;21.86884
46174;BME280;31897;52.420;13.498;2023-09-12T10:10:37;100800;;;28.08831;21.88134
46174;BME280;31897;52.420;13.498;2023-09-12T10:13:38;100800;;;28.08153;21.95536
46174;BME280;31897;52.420;13.498;2023-09-12T10:16:44;100800;;;28.1371;21.98337
46174;BME280;31897;52.420;13.498;2023-09-12T10:19:55;100800;;;27.98104;22.21808
46174;BME280;31897;52.420;13.498;2023-09-12T10:22:59;100800;;;27.8573;22.37744
46174;BME280;31897;52.420;13.498;2023-09-12T10:26:03;100800;;;27.96037;22.39095
46174;BME280;31897;52.420;13.498;2023-09-12T10:29:04;100800;;;27.88961;22.51706
46174;BME280;31897;52.420;13.498;2023-09-12T10:32:05;100800;;;27.87797;22.56671
46174;BME280;31897;52.420;13.498;2023-09-12T10:35:06;100800;;;27.81529;22.69238
46174;BME280;31897;52.420;13.498;2023-09-12T10:38:08;100800;;;27.81497;22.80284
46174;BME280;31897;52.420;13.498;2023-09-12T10:41:09;100800;;;27.77749;22.89661
46174;BME280;31897;52.420;13.498;2023-09-12T10:44:14;100800;;;27.9455;22.83971
46174;BME280;31897;52.420;13.498;2023-09-12T10:47:15;100800;;;28.014;22.71989
46174;BME280;31897;52.420;13.498;2023-09-12T10:50:16;100800;;;27.81723;22.87636
46174;BME280;31897;52.420;13.498;2023-09-12T10:53:17;100800;;;27.88476;22.86095
46174;BME280;31897;52.420;13.498;2023-09-12T10:56:18;100800;;;28.07991;22.66768
46174;BME280;31897;52.420;13.498;2023-09-12T10:59:19;100800;;;28.32806;22.55772
46174;BME280;31897;52.420;13.498;2023-09-12T11:02:28;100800;;;28.60076;22.25589
46174;BME280;31897;52.420;13.498;2023-09-12T11:05:36;100800;;;28.88024;21.97181
46174;BME280;31897;52.420;13.498;2023-09-12T11:08:38;100800;;;28.77685;22.11213
46174;BME280;31897;52.420;13.498;2023-09-12T11:11:39;100800;;;28.64179;22.10637
46174;BME280;31897;52.420;13.498;2023-09-12T11:15:03;100800;;;28.25827;22.24162
46174;BME280;31897;52.420;13.498;2023-09-12T11:18:04;100800;;;28.21723;22.28659
46174;BME280;31897;52.420;13.498;2023-09-12T11:21:05;100800;;;28.4489;22.10342
46174;BME280;31897;52.420;13.498;2023-09-12T11:24:06;100800;;;28.63048;21.83641
46174;BME280;31897;52.420;13.498;2023-09-12T11:27:07;100800;;;28.64438;21.7681
46174;BME280;31897;52.420;13.498;2023-09-12T11:30:08;100800;;;28.54777;21.80358
46174;BME280;31897;52.420;13.498;2023-09-12T11:33:10;100800;;;28.56166;21.87667
46174;BME280;31897;52.420;13.498;2023-09-12T11:36:12;100800;;;28.62919;21.81803
46174;BME280;31897;52.420;13.498;2023-09-12T11:39:30;100800;;;28.39849;21.90307
46174;BME280;31897;52.420;13.498;2023-09-12T11:42:31;100800;;;28.12418;22.09457
46174;BME280;31897;52.420;13.498;2023-09-12T11:45:32;100800;;;28.17846;22.08577
46174;BME280;31897;52.420;13.498;2023-09-12T11:48:33;100800;;;28.06667;22.26923
46174;BME280;31897;52.420;13.498;2023-09-12T11:51:34;100800;;;28.16489;22.13556
46174;BME280;31897;52.420;13.498;2023-09-12T11:54:34;100800;;;28.26731;22.09991
46174;BME280;31897;52.420;13.498;2023-09-12T11:57:35;100800;;;28.31513;21.90714
46174;BME280;31897;52.420;13.498;2023-09-12T12:00:36;100800;;;28.47604;21.65344
46174;BME280;31897;52.420;13.498;2023-09-12T12:03:37;100800;;;28.58493;21.59273
46174;BME280;31897;52.420;13.498;2023-09-12T12:06:38;100800;;;28.84664;21.40751
46174;BME280;31897;52.420;13.498;2023-09-12T12:09:38;100800;;;29.39204;21.01061
46174;BME280;31897;52.420;13.498;2023-09-12T12:12:39;100800;;;30.11322;20.61568
46174;BME280;31897;52.420;13.498;2023-09-12T12:15:40;100800;;;30.55556;20.20983
46174;BME280;31897;52.420;13.498;2023-09-12T12:18:41;100800;;;30.78012;19.95687
46174;BME280;31897;52.420;13.498;2023-09-12T12:21:42;100800;;;30.56009;19.22117
46174;BME280;31897;52.420;13.498;2023-09-12T12:24:45;100800;;;30.04699;19.76785
46174;BME280;31897;52.420;13.498;2023-09-12T12:27:45;100800;;;30.06831;19.93331
46174;BME280;31897;52.420;13.498;2023-09-12T12:30:46;100800;;;30.04505;20.08265
46174;BME280;31897;52.420;13.498;2023-09-12T12:33:52;100800;;;30.53424;19.85271
46174;BME280;31897;52.420;13.498;2023-09-12T12:36:54;100800;;;30.73586;19.68116
46174;BME280;31897;52.420;13.498;2023-09-12T12:39:54;100800;;;30.75751;19.61818
46174;BME280;31897;52.420;13.498;2023-09-12T12:42:55;100800;;;31.17949;19.41576
46174;BME280;31897;52.420;13.498;2023-09-12T12:45:57;100800;;;31.60277;19.21905
46174;BME280;31897;52.420;13.498;2023-09-12T12:48:58;100800;;;31.8939;19.1037
46174;BME280;31897;52.420;13.498;2023-09-12T12:51:59;100800;;;32.23608;18.97913
46174;BME280;31897;52.420;13.498;2023-09-12T12:55:04;100800;;;32.6277;18.75223
46174;BME280;31897;52.420;13.498;2023-09-12T12:58:04;100800;;;32.76082;18.63289
46174;BME280;31897;52.420;13.498;2023-09-12T13:01:05;100800;;;32.80962;18.59285
46174;BME280;31897;52.420;13.498;2023-09-12T13:04:06;100800;;;32.75242;18.55887
46174;BME280;31897;52.420;13.498;2023-09-12T13:07:07;100800;;;32.79475;18.51298
46174;BME280;31897;52.420;13.498;2023-09-12T13:10:08;100800;;;32.58731;18.56833
46174;BME280;31897;52.420;13.498;2023-09-12T13:13:09;100800;;;32.2881;18.74672
46174;BME280;31897;52.420;13.498;2023-09-12T13:16:12;100800;;;32.17275;18.70986
46174;BME280;31897;52.420;13.498;2023-09-12T13:19:14;100800;;;32.15982;18.61759
46174;BME280;31897;52.420;13.498;2023-09-12T13:22:14;100800;;;32.1469;18.63692
46174;BME280;31897;52.420;13.498;2023-09-12T13:25:15;100800;;;32.26096;18.61802
46174;BME280;31897;52.420;13.498;2023-09-12T13:28:16;100800;;;32.06483;18.5858
46174;BME280;31897;52.420;13.498;2023-09-12T13:31:17;100800;;;31.96757;18.44259
46174;BME280;31897;52.420;13.498;2023-09-12T13:34:18;100800;;;32.07452;18.46125
46174;BME280;31897;52.420;13.498;2023-09-12T13:37:18;100700;;;32.15045;18.44449
46174;BME280;31897;52.420;13.498;2023-09-12T13:40:19;100700;;;32.16661;18.29473
46174;BME280;31897;52.420;13.498;2023-09-12T13:43:20;100700;;;32.25288;18.27114
46174;BME280;31897;52.420;13.498;2023-09-12T13:46:21;100700;;;32.34917;18.09806
46174;BME280;31897;52.420;13.498;2023-09-12T13:49:22;100700;;;32.31751;17.87035
46174;BME280;31897;52.420;13.498;2023-09-12T13:52:22;100700;;;32.08938;17.78451
46174;BME280;31897;52.420;13.498;2023-09-12T13:55:23;100700;;;32.02153;17.62108
46174;BME280;31897;52.420;13.498;2023-09-12T13:58:24;100700;;;31.72523;17.65719
46174;BME280;31897;52.420;13.498;2023-09-12T14:01:25;100700;;;31.54397;17.82273
46174;BME280;31897;52.420;13.498;2023-09-12T14:04:25;100700;;;31.63993;17.68712
46174;BME280;31897;52.420;13.498;2023-09-12T14:07:26;100700;;;31.38338;17.80117
46174;BME280;31897;52.420;13.498;2023-09-12T14:10:27;100700;;;31.48871;17.80119
46174;BME280;31897;52.420;13.498;2023-09-12T14:13:28;100700;;;31.15332;17.74037
46174;BME280;31897;52.420;13.498;2023-09-12T14:16:29;100700;;;30.76041;18.07256
46174;BME280;31897;52.420;13.498;2023-09-12T14:19:30;100700;;;30.8008;18.17535
46174;BME280;31897;52.420;13.498;2023-09-12T14:22:31;100700;;;30.9601;17.99915
46174;BME280;31897;52.420;13.498;2023-09-12T14:25:32;100700;;;30.87738;18.08435
46174;BME280;31897;52.420;13.498;2023-09-12T14:28:33;100700;;;31.00889;18.1881
46174;BME280;31897;52.420;13.498;2023-09-12T14:31:34;100700;;;31.12586;18.1566
46174;BME280;31897;52.420;13.498;2023-09-12T14:34:35;100700;;;31.11261;18.17593
46174;BME280;31897;52.420;13.498;2023-09-12T14:37:36;100700;;;30.98175;18.20204
46174;BME280;31897;52.420;13.498;2023-09-12T14:40:36;100700;;;30.73877;18.24693
46174;BME280;31897;52.420;13.498;2023-09-12T14:43:37;100700;;;30.54328;18.36939
46174;BME280;31897;52.420;13.498;2023-09-12T14:46:38;100700;;;30.25022;18.45404
46174;BME280;31897;52.420;13.498;2023-09-12T14:49:39;100700;;;30.07283;18.57524
46174;BME280;31897;52.420;13.498;2023-09-12T14:52:40;100700;;;30.06928;18.71125
46174;BME280;31897;52.420;13.498;2023-09-12T14:55:41;100700;;;29.95878;18.71746
46174;BME280;31897;52.420;13.498;2023-09-12T14:58:41;100700;;;30.08544;18.72268
46174;BME280;31897;52.420;13.498;2023-09-12T15:01:42;100700;;;29.86055;18.82787